Lumberton, North Carolina
Current Conditions -  °F | °C
As of 4:54 PM on Tuesday 21 Oct 2014 (Local Time) from KLBT Reporting Station
Clear Clear  
Wind Chill: 77°   Ceiling: Unl
Heat Index: 78°   Visibility: 10mi
Dew Point: 48°   Wind: 8mph
Humidity: 36%   Direction: 280°W
Pressure: 29.84"   Gusts: NA
Location:  34.62°N, 79.01°W
Report Text: KLBT 212054Z AUTO 28007KT 10SM CLR 25/09 A2984 RMK AO2 SLP102 T02500089 55008
Loading
Personal Weather Stations






























Interactive Weather Map
Tropical Storm Tracking
New forecast layout! Learn more

10-Day Weather Forecast

Advertisements
Track Severe Weather on mobile